sensor_id;sensor_type;location;lat;lon;timestamp;P1;durP1;ratioP1;P2;durP2;ratioP2
41711;SDS011;27399;51.516;13.670;2023-03-04T00:01:46;25.75;;;12.48;;
41711;SDS011;27399;51.516;13.670;2023-03-04T00:04:11;30.65;;;12.23;;
41711;SDS011;27399;51.516;13.670;2023-03-04T00:06:37;29.77;;;11.25;;
41711;SDS011;27399;51.516;13.670;2023-03-04T00:09:03;28.65;;;11.65;;
41711;SDS011;27399;51.516;13.670;2023-03-04T00:11:29;24.42;;;10.95;;
41711;SDS011;27399;51.516;13.670;2023-03-04T00:13:56;27.52;;;11.10;;
41711;SDS011;27399;51.516;13.670;2023-03-04T00:16:22;24.42;;;12.13;;
41711;SDS011;27399;51.516;13.670;2023-03-04T00:18:51;27.58;;;11.13;;
41711;SDS011;27399;51.516;13.670;2023-03-04T00:21:20;24.13;;;10.65;;
41711;SDS011;27399;51.516;13.670;2023-03-04T00:23:46;27.55;;;11.38;;
41711;SDS011;27399;51.516;13.670;2023-03-04T00:26:12;25.17;;;10.48;;
41711;SDS011;27399;51.516;13.670;2023-03-04T00:28:38;28.02;;;11.35;;
41711;SDS011;27399;51.516;13.670;2023-03-04T00:31:04;28.60;;;11.88;;
41711;SDS011;27399;51.516;13.670;2023-03-04T00:33:31;26.15;;;12.20;;
41711;SDS011;27399;51.516;13.670;2023-03-04T00:35:56;28.15;;;11.48;;
41711;SDS011;27399;51.516;13.670;2023-03-04T00:38:22;27.75;;;12.05;;
41711;SDS011;27399;51.516;13.670;2023-03-04T00:40:47;31.42;;;12.07;;
41711;SDS011;27399;51.516;13.670;2023-03-04T00:43:13;36.47;;;12.40;;
41711;SDS011;27399;51.516;13.670;2023-03-04T00:45:39;24.65;;;10.63;;
41711;SDS011;27399;51.516;13.670;2023-03-04T00:48:04;25.42;;;11.40;;
41711;SDS011;27399;51.516;13.670;2023-03-04T00:50:30;29.05;;;12.65;;
41711;SDS011;27399;51.516;13.670;2023-03-04T00:52:55;26.88;;;11.38;;
41711;SDS011;27399;51.516;13.670;2023-03-04T00:55:21;32.50;;;13.30;;
41711;SDS011;27399;51.516;13.670;2023-03-04T00:57:47;29.50;;;11.38;;
41711;SDS011;27399;51.516;13.670;2023-03-04T01:00:12;31.17;;;12.63;;
41711;SDS011;27399;51.516;13.670;2023-03-04T01:02:39;29.67;;;12.00;;
41711;SDS011;27399;51.516;13.670;2023-03-04T01:05:04;28.50;;;12.82;;
41711;SDS011;27399;51.516;13.670;2023-03-04T01:07:30;29.77;;;13.50;;
41711;SDS011;27399;51.516;13.670;2023-03-04T01:09:56;33.42;;;15.05;;
41711;SDS011;27399;51.516;13.670;2023-03-04T01:12:22;35.03;;;12.65;;
41711;SDS011;27399;51.516;13.670;2023-03-04T01:14:47;33.05;;;13.43;;
41711;SDS011;27399;51.516;13.670;2023-03-04T01:17:13;30.98;;;13.32;;
41711;SDS011;27399;51.516;13.670;2023-03-04T01:19:39;33.47;;;14.82;;
41711;SDS011;27399;51.516;13.670;2023-03-04T01:22:04;33.80;;;12.95;;
41711;SDS011;27399;51.516;13.670;2023-03-04T01:24:34;29.90;;;12.63;;
41711;SDS011;27399;51.516;13.670;2023-03-04T01:27:00;30.77;;;13.45;;
41711;SDS011;27399;51.516;13.670;2023-03-04T01:29:26;31.85;;;13.40;;
41711;SDS011;27399;51.516;13.670;2023-03-04T01:31:51;32.63;;;14.35;;
41711;SDS011;27399;51.516;13.670;2023-03-04T01:34:17;27.08;;;12.35;;
41711;SDS011;27399;51.516;13.670;2023-03-04T01:36:43;31.58;;;12.93;;
41711;SDS011;27399;51.516;13.670;2023-03-04T01:39:08;30.70;;;13.15;;
41711;SDS011;27399;51.516;13.670;2023-03-04T01:41:34;27.80;;;12.73;;
41711;SDS011;27399;51.516;13.670;2023-03-04T01:43:59;31.50;;;13.52;;
41711;SDS011;27399;51.516;13.670;2023-03-04T01:46:26;28.88;;;11.90;;
41711;SDS011;27399;51.516;13.670;2023-03-04T01:48:53;24.42;;;11.98;;
41711;SDS011;27399;51.516;13.670;2023-03-04T01:51:19;24.08;;;11.32;;
41711;SDS011;27399;51.516;13.670;2023-03-04T01:53:47;29.42;;;12.57;;
41711;SDS011;27399;51.516;13.670;2023-03-04T01:56:28;24.25;;;11.40;;
41711;SDS011;27399;51.516;13.670;2023-03-04T01:59:06;25.17;;;11.90;;
41711;SDS011;27399;51.516;13.670;2023-03-04T02:01:37;26.50;;;10.95;;
41711;SDS011;27399;51.516;13.670;2023-03-04T02:04:04;29.65;;;11.63;;
41711;SDS011;27399;51.516;13.670;2023-03-04T02:06:32;26.02;;;11.40;;
41711;SDS011;27399;51.516;13.670;2023-03-04T02:08:58;24.67;;;11.63;;
41711;SDS011;27399;51.516;13.670;2023-03-04T02:11:24;30.83;;;12.40;;
41711;SDS011;27399;51.516;13.670;2023-03-04T02:13:50;22.50;;;10.98;;
41711;SDS011;27399;51.516;13.670;2023-03-04T02:16:16;21.88;;;11.40;;
41711;SDS011;27399;51.516;13.670;2023-03-04T02:18:42;25.75;;;11.52;;
41711;SDS011;27399;51.516;13.670;2023-03-04T02:23:34;22.10;;;10.77;;
41711;SDS011;27399;51.516;13.670;2023-03-04T02:28:41;26.25;;;11.75;;
41711;SDS011;27399;51.516;13.670;2023-03-04T02:34:21;26.90;;;12.07;;
41711;SDS011;27399;51.516;13.670;2023-03-04T02:36:50;24.55;;;11.88;;
41711;SDS011;27399;51.516;13.670;2023-03-04T02:41:45;22.63;;;11.50;;
41711;SDS011;27399;51.516;13.670;2023-03-04T02:44:19;31.00;;;13.63;;
41711;SDS011;27399;51.516;13.670;2023-03-04T02:46:46;22.70;;;10.40;;
41711;SDS011;27399;51.516;13.670;2023-03-04T02:49:13;26.67;;;11.73;;
41711;SDS011;27399;51.516;13.670;2023-03-04T02:51:39;19.77;;;10.15;;
41711;SDS011;27399;51.516;13.670;2023-03-04T02:54:13;26.98;;;13.52;;
41711;SDS011;27399;51.516;13.670;2023-03-04T02:56:47;26.10;;;11.00;;
41711;SDS011;27399;51.516;13.670;2023-03-04T02:59:14;25.15;;;11.63;;
41711;SDS011;27399;51.516;13.670;2023-03-04T03:01:40;31.23;;;12.57;;
41711;SDS011;27399;51.516;13.670;2023-03-04T03:04:05;24.95;;;12.05;;
41711;SDS011;27399;51.516;13.670;2023-03-04T03:06:31;30.33;;;12.20;;
41711;SDS011;27399;51.516;13.670;2023-03-04T03:08:57;26.73;;;11.70;;
41711;SDS011;27399;51.516;13.670;2023-03-04T03:11:22;28.38;;;12.40;;
41711;SDS011;27399;51.516;13.670;2023-03-04T03:13:48;27.88;;;11.25;;
41711;SDS011;27399;51.516;13.670;2023-03-04T03:16:13;21.63;;;11.05;;
41711;SDS011;27399;51.516;13.670;2023-03-04T03:18:39;26.67;;;12.45;;
41711;SDS011;27399;51.516;13.670;2023-03-04T03:21:05;25.88;;;10.43;;
41711;SDS011;27399;51.516;13.670;2023-03-04T03:23:31;26.40;;;12.40;;
41711;SDS011;27399;51.516;13.670;2023-03-04T03:25:57;30.08;;;11.35;;
41711;SDS011;27399;51.516;13.670;2023-03-04T03:28:23;32.72;;;11.93;;
41711;SDS011;27399;51.516;13.670;2023-03-04T03:30:48;26.05;;;10.85;;
41711;SDS011;27399;51.516;13.670;2023-03-04T03:33:14;27.63;;;9.88;;
41711;SDS011;27399;51.516;13.670;2023-03-04T03:35:39;26.13;;;9.52;;
41711;SDS011;27399;51.516;13.670;2023-03-04T03:38:05;31.35;;;10.45;;
41711;SDS011;27399;51.516;13.670;2023-03-04T03:40:31;21.27;;;10.27;;
41711;SDS011;27399;51.516;13.670;2023-03-04T03:42:57;29.02;;;10.27;;
41711;SDS011;27399;51.516;13.670;2023-03-04T03:45:22;25.27;;;9.48;;
41711;SDS011;27399;51.516;13.670;2023-03-04T03:47:48;26.60;;;10.30;;
41711;SDS011;27399;51.516;13.670;2023-03-04T03:50:13;23.85;;;10.45;;
41711;SDS011;27399;51.516;13.670;2023-03-04T03:52:39;32.88;;;10.93;;
41711;SDS011;27399;51.516;13.670;2023-03-04T03:55:05;29.30;;;10.02;;
41711;SDS011;27399;51.516;13.670;2023-03-04T03:57:31;26.65;;;10.35;;
41711;SDS011;27399;51.516;13.670;2023-03-04T03:59:56;27.17;;;10.40;;
41711;SDS011;27399;51.516;13.670;2023-03-04T04:02:22;29.13;;;9.75;;
41711;SDS011;27399;51.516;13.670;2023-03-04T04:04:47;34.97;;;10.02;;
41711;SDS011;27399;51.516;13.670;2023-03-04T04:07:13;30.00;;;9.52;;
41711;SDS011;27399;51.516;13.670;2023-03-04T04:09:39;27.10;;;8.50;;
41711;SDS011;27399;51.516;13.670;2023-03-04T04:12:05;29.05;;;10.80;;
41711;SDS011;27399;51.516;13.670;2023-03-04T04:14:31;28.88;;;9.70;;
41711;SDS011;27399;51.516;13.670;2023-03-04T04:16:57;23.42;;;9.32;;
41711;SDS011;27399;51.516;13.670;2023-03-04T04:19:23;24.48;;;8.30;;
41711;SDS011;27399;51.516;13.670;2023-03-04T04:21:49;20.55;;;8.25;;
41711;SDS011;27399;51.516;13.670;2023-03-04T04:24:14;25.40;;;8.27;;
41711;SDS011;27399;51.516;13.670;2023-03-04T04:26:41;23.40;;;7.88;;
41711;SDS011;27399;51.516;13.670;2023-03-04T04:29:07;26.33;;;9.20;;
41711;SDS011;27399;51.516;13.670;2023-03-04T04:31:34;27.35;;;8.65;;
41711;SDS011;27399;51.516;13.670;2023-03-04T04:34:00;24.48;;;8.95;;
41711;SDS011;27399;51.516;13.670;2023-03-04T04:36:26;23.38;;;9.43;;
41711;SDS011;27399;51.516;13.670;2023-03-04T04:38:51;27.90;;;9.70;;
41711;SDS011;27399;51.516;13.670;2023-03-04T04:41:19;25.77;;;8.55;;
41711;SDS011;27399;51.516;13.670;2023-03-04T04:43:47;29.50;;;9.95;;
41711;SDS011;27399;51.516;13.670;2023-03-04T04:46:13;26.88;;;8.23;;
41711;SDS011;27399;51.516;13.670;2023-03-04T04:48:39;27.52;;;9.02;;
41711;SDS011;27399;51.516;13.670;2023-03-04T04:51:05;25.30;;;8.43;;
41711;SDS011;27399;51.516;13.670;2023-03-04T04:53:32;29.75;;;9.07;;
41711;SDS011;27399;51.516;13.670;2023-03-04T04:55:57;25.55;;;8.73;;
41711;SDS011;27399;51.516;13.670;2023-03-04T04:58:23;25.10;;;8.48;;
41711;SDS011;27399;51.516;13.670;2023-03-04T05:00:49;27.65;;;9.70;;
41711;SDS011;27399;51.516;13.670;2023-03-04T05:03:14;22.95;;;9.15;;
41711;SDS011;27399;51.516;13.670;2023-03-04T05:05:40;32.60;;;10.00;;
41711;SDS011;27399;51.516;13.670;2023-03-04T05:08:06;24.75;;;9.07;;
41711;SDS011;27399;51.516;13.670;2023-03-04T05:10:32;23.48;;;8.57;;
41711;SDS011;27399;51.516;13.670;2023-03-04T05:12:57;27.98;;;9.27;;
41711;SDS011;27399;51.516;13.670;2023-03-04T05:15:23;26.13;;;9.80;;
41711;SDS011;27399;51.516;13.670;2023-03-04T05:17:49;21.23;;;8.55;;
41711;SDS011;27399;51.516;13.670;2023-03-04T05:20:14;26.00;;;9.75;;
41711;SDS011;27399;51.516;13.670;2023-03-04T05:22:40;27.48;;;9.00;;
41711;SDS011;27399;51.516;13.670;2023-03-04T05:25:06;29.52;;;10.18;;
41711;SDS011;27399;51.516;13.670;2023-03-04T05:27:32;39.58;;;9.68;;
41711;SDS011;27399;51.516;13.670;2023-03-04T05:29:58;37.22;;;9.85;;
41711;SDS011;27399;51.516;13.670;2023-03-04T05:32:26;17.45;;;7.32;;
41711;SDS011;27399;51.516;13.670;2023-03-04T05:34:52;22.75;;;8.85;;
41711;SDS011;27399;51.516;13.670;2023-03-04T05:37:18;30.33;;;7.88;;
41711;SDS011;27399;51.516;13.670;2023-03-04T05:39:43;27.67;;;9.80;;
41711;SDS011;27399;51.516;13.670;2023-03-04T05:42:09;22.92;;;8.65;;
41711;SDS011;27399;51.516;13.670;2023-03-04T05:44:34;24.33;;;8.52;;
41711;SDS011;27399;51.516;13.670;2023-03-04T05:47:00;22.35;;;8.30;;
41711;SDS011;27399;51.516;13.670;2023-03-04T05:49:26;27.73;;;8.52;;
41711;SDS011;27399;51.516;13.670;2023-03-04T05:51:51;24.83;;;8.20;;
41711;SDS011;27399;51.516;13.670;2023-03-04T05:54:17;20.05;;;7.70;;
41711;SDS011;27399;51.516;13.670;2023-03-04T05:56:42;24.00;;;8.18;;
41711;SDS011;27399;51.516;13.670;2023-03-04T05:59:09;30.33;;;9.13;;
41711;SDS011;27399;51.516;13.670;2023-03-04T06:01:35;23.10;;;8.07;;
41711;SDS011;27399;51.516;13.670;2023-03-04T06:04:00;33.80;;;8.75;;
41711;SDS011;27399;51.516;13.670;2023-03-04T06:06:26;30.73;;;8.02;;
41711;SDS011;27399;51.516;13.670;2023-03-04T06:08:51;29.45;;;8.10;;
41711;SDS011;27399;51.516;13.670;2023-03-04T06:11:17;24.65;;;7.65;;
41711;SDS011;27399;51.516;13.670;2023-03-04T06:13:42;26.45;;;9.02;;
41711;SDS011;27399;51.516;13.670;2023-03-04T06:16:08;28.30;;;7.80;;
41711;SDS011;27399;51.516;13.670;2023-03-04T06:18:34;29.00;;;8.32;;
41711;SDS011;27399;51.516;13.670;2023-03-04T06:21:00;29.60;;;8.60;;
41711;SDS011;27399;51.516;13.670;2023-03-04T06:23:27;30.48;;;8.15;;
41711;SDS011;27399;51.516;13.670;2023-03-04T06:25:55;22.23;;;7.53;;
41711;SDS011;27399;51.516;13.670;2023-03-04T06:28:22;23.58;;;7.78;;
41711;SDS011;27399;51.516;13.670;2023-03-04T06:30:50;26.48;;;7.68;;
41711;SDS011;27399;51.516;13.670;2023-03-04T06:33:17;28.92;;;8.50;;
41711;SDS011;27399;51.516;13.670;2023-03-04T06:35:42;22.10;;;7.53;;
41711;SDS011;27399;51.516;13.670;2023-03-04T06:38:08;28.95;;;8.07;;
41711;SDS011;27399;51.516;13.670;2023-03-04T06:40:34;37.20;;;9.98;;
41711;SDS011;27399;51.516;13.670;2023-03-04T06:42:59;24.50;;;8.43;;
41711;SDS011;27399;51.516;13.670;2023-03-04T06:45:25;29.10;;;8.25;;
41711;SDS011;27399;51.516;13.670;2023-03-04T06:47:51;30.77;;;8.82;;
41711;SDS011;27399;51.516;13.670;2023-03-04T06:50:16;21.17;;;7.88;;
41711;SDS011;27399;51.516;13.670;2023-03-04T06:52:42;25.45;;;8.30;;
41711;SDS011;27399;51.516;13.670;2023-03-04T06:55:08;27.80;;;8.75;;
41711;SDS011;27399;51.516;13.670;2023-03-04T06:57:34;24.52;;;8.02;;
41711;SDS011;27399;51.516;13.670;2023-03-04T06:59:59;20.77;;;8.23;;
41711;SDS011;27399;51.516;13.670;2023-03-04T07:02:27;25.77;;;9.15;;
41711;SDS011;27399;51.516;13.670;2023-03-04T07:04:53;30.17;;;9.52;;
41711;SDS011;27399;51.516;13.670;2023-03-04T07:07:18;35.00;;;10.77;;
41711;SDS011;27399;51.516;13.670;2023-03-04T07:09:44;30.60;;;8.43;;
41711;SDS011;27399;51.516;13.670;2023-03-04T07:12:10;27.30;;;10.02;;
41711;SDS011;27399;51.516;13.670;2023-03-04T07:14:35;29.10;;;8.82;;
41711;SDS011;27399;51.516;13.670;2023-03-04T07:17:01;37.03;;;12.23;;
41711;SDS011;27399;51.516;13.670;2023-03-04T07:19:26;23.15;;;8.77;;
41711;SDS011;27399;51.516;13.670;2023-03-04T07:21:52;29.05;;;9.55;;
41711;SDS011;27399;51.516;13.670;2023-03-04T07:24:18;29.95;;;9.73;;
41711;SDS011;27399;51.516;13.670;2023-03-04T07:26:44;34.40;;;9.60;;
41711;SDS011;27399;51.516;13.670;2023-03-04T07:29:09;35.00;;;9.88;;
41711;SDS011;27399;51.516;13.670;2023-03-04T07:31:36;27.95;;;8.52;;
41711;SDS011;27399;51.516;13.670;2023-03-04T07:34:05;23.48;;;8.32;;
41711;SDS011;27399;51.516;13.670;2023-03-04T07:36:34;24.00;;;8.05;;
41711;SDS011;27399;51.516;13.670;2023-03-04T07:39:01;28.55;;;8.63;;
41711;SDS011;27399;51.516;13.670;2023-03-04T07:41:27;28.80;;;9.32;;
41711;SDS011;27399;51.516;13.670;2023-03-04T07:43:57;31.00;;;10.38;;
41711;SDS011;27399;51.516;13.670;2023-03-04T07:46:23;27.60;;;9.10;;
41711;SDS011;27399;51.516;13.670;2023-03-04T07:48:49;27.60;;;9.18;;
41711;SDS011;27399;51.516;13.670;2023-03-04T07:51:16;34.35;;;10.43;;
41711;SDS011;27399;51.516;13.670;2023-03-04T07:53:44;36.00;;;9.73;;
41711;SDS011;27399;51.516;13.670;2023-03-04T07:56:12;29.15;;;8.75;;
41711;SDS011;27399;51.516;13.670;2023-03-04T07:58:40;27.83;;;9.55;;
41711;SDS011;27399;51.516;13.670;2023-03-04T08:01:09;28.38;;;9.77;;
41711;SDS011;27399;51.516;13.670;2023-03-04T08:03:39;32.38;;;9.93;;
41711;SDS011;27399;51.516;13.670;2023-03-04T08:06:06;29.13;;;9.20;;
41711;SDS011;27399;51.516;13.670;2023-03-04T08:08:33;27.67;;;8.88;;
41711;SDS011;27399;51.516;13.670;2023-03-04T08:10:59;22.92;;;8.30;;
41711;SDS011;27399;51.516;13.670;2023-03-04T08:13:28;38.15;;;9.20;;
41711;SDS011;27399;51.516;13.670;2023-03-04T08:15:54;25.13;;;9.52;;
41711;SDS011;27399;51.516;13.670;2023-03-04T08:18:20;33.65;;;9.93;;
41711;SDS011;27399;51.516;13.670;2023-03-04T08:20:46;18.70;;;8.63;;
41711;SDS011;27399;51.516;13.670;2023-03-04T08:23:12;24.70;;;9.40;;
41711;SDS011;27399;51.516;13.670;2023-03-04T08:25:39;29.45;;;8.65;;
41711;SDS011;27399;51.516;13.670;2023-03-04T08:28:05;25.00;;;8.77;;
41711;SDS011;27399;51.516;13.670;2023-03-04T08:30:32;24.45;;;7.97;;
41711;SDS011;27399;51.516;13.670;2023-03-04T08:32:58;27.67;;;9.20;;
41711;SDS011;27399;51.516;13.670;2023-03-04T08:35:23;23.00;;;8.75;;
41711;SDS011;27399;51.516;13.670;2023-03-04T08:37:49;21.65;;;8.52;;
41711;SDS011;27399;51.516;13.670;2023-03-04T08:40:14;30.02;;;9.98;;
41711;SDS011;27399;51.516;13.670;2023-03-04T08:42:40;23.80;;;8.38;;
41711;SDS011;27399;51.516;13.670;2023-03-04T08:45:06;27.30;;;8.20;;
41711;SDS011;27399;51.516;13.670;2023-03-04T08:47:33;29.38;;;8.40;;
41711;SDS011;27399;51.516;13.670;2023-03-04T08:49:58;21.90;;;6.68;;
41711;SDS011;27399;51.516;13.670;2023-03-04T08:52:24;36.78;;;7.70;;
41711;SDS011;27399;51.516;13.670;2023-03-04T08:54:50;18.08;;;7.15;;
41711;SDS011;27399;51.516;13.670;2023-03-04T08:57:16;25.95;;;7.97;;
41711;SDS011;27399;51.516;13.670;2023-03-04T08:59:41;22.85;;;7.80;;
41711;SDS011;27399;51.516;13.670;2023-03-04T09:02:08;21.35;;;7.93;;
41711;SDS011;27399;51.516;13.670;2023-03-04T09:04:34;18.50;;;6.80;;
41711;SDS011;27399;51.516;13.670;2023-03-04T09:07:00;24.30;;;7.85;;
41711;SDS011;27399;51.516;13.670;2023-03-04T09:09:26;22.90;;;6.85;;
41711;SDS011;27399;51.516;13.670;2023-03-04T09:11:51;15.07;;;6.90;;
41711;SDS011;27399;51.516;13.670;2023-03-04T09:14:17;21.17;;;7.13;;
41711;SDS011;27399;51.516;13.670;2023-03-04T09:16:43;14.45;;;6.32;;
41711;SDS011;27399;51.516;13.670;2023-03-04T09:19:09;20.55;;;7.25;;
41711;SDS011;27399;51.516;13.670;2023-03-04T09:21:34;23.42;;;7.30;;
41711;SDS011;27399;51.516;13.670;2023-03-04T09:24:00;21.55;;;7.88;;
41711;SDS011;27399;51.516;13.670;2023-03-04T09:26:27;21.42;;;8.32;;
41711;SDS011;27399;51.516;13.670;2023-03-04T09:28:57;16.85;;;6.35;;
41711;SDS011;27399;51.516;13.670;2023-03-04T09:33:50;14.32;;;5.68;;
41711;SDS011;27399;51.516;13.670;2023-03-04T09:36:16;20.42;;;6.78;;
41711;SDS011;27399;51.516;13.670;2023-03-04T09:38:42;16.17;;;5.35;;
41711;SDS011;27399;51.516;13.670;2023-03-04T09:41:09;12.38;;;5.35;;
41711;SDS011;27399;51.516;13.670;2023-03-04T09:43:46;16.17;;;5.78;;
41711;SDS011;27399;51.516;13.670;2023-03-04T09:46:14;15.85;;;6.05;;
41711;SDS011;27399;51.516;13.670;2023-03-04T09:48:47;14.13;;;5.23;;
41711;SDS011;27399;51.516;13.670;2023-03-04T09:53:56;21.30;;;5.88;;
41711;SDS011;27399;51.516;13.670;2023-03-04T09:56:32;20.67;;;5.68;;
41711;SDS011;27399;51.516;13.670;2023-03-04T10:02:00;19.90;;;5.95;;
41711;SDS011;27399;51.516;13.670;2023-03-04T10:04:41;15.27;;;5.13;;
41711;SDS011;27399;51.516;13.670;2023-03-04T10:07:22;14.45;;;4.75;;
41711;SDS011;27399;51.516;13.670;2023-03-04T10:09:55;15.77;;;5.00;;
41711;SDS011;27399;51.516;13.670;2023-03-04T10:12:28;14.88;;;5.68;;
41711;SDS011;27399;51.516;13.670;2023-03-04T10:15:07;12.57;;;5.38;;
41711;SDS011;27399;51.516;13.670;2023-03-04T10:17:47;17.15;;;5.75;;
41711;SDS011;27399;51.516;13.670;2023-03-04T10:20:18;14.65;;;5.30;;
41711;SDS011;27399;51.516;13.670;2023-03-04T10:22:48;13.43;;;6.55;;
41711;SDS011;27399;51.516;13.670;2023-03-04T10:25:17;11.18;;;5.10;;
41711;SDS011;27399;51.516;13.670;2023-03-04T10:27:55;16.73;;;5.93;;
41711;SDS011;27399;51.516;13.670;2023-03-04T10:30:39;19.50;;;5.70;;
41711;SDS011;27399;51.516;13.670;2023-03-04T10:33:13;16.40;;;5.70;;
41711;SDS011;27399;51.516;13.670;2023-03-04T10:35:44;13.88;;;4.85;;
41711;SDS011;27399;51.516;13.670;2023-03-04T10:38:35;13.75;;;5.30;;
41711;SDS011;27399;51.516;13.670;2023-03-04T10:41:14;17.80;;;4.88;;
41711;SDS011;27399;51.516;13.670;2023-03-04T10:43:40;13.30;;;4.47;;
41711;SDS011;27399;51.516;13.670;2023-03-04T10:46:10;13.32;;;5.78;;
41711;SDS011;27399;51.516;13.670;2023-03-04T10:48:36;16.35;;;5.72;;
41711;SDS011;27399;51.516;13.670;2023-03-04T10:51:15;15.57;;;4.70;;
41711;SDS011;27399;51.516;13.670;2023-03-04T10:53:44;16.83;;;5.45;;
41711;SDS011;27399;51.516;13.670;2023-03-04T11:05:30;11.18;;;4.07;;
41711;SDS011;27399;51.516;13.670;2023-03-04T11:07:53;14.82;;;5.32;;
41711;SDS011;27399;51.516;13.670;2023-03-04T11:10:21;10.23;;;3.97;;
41711;SDS011;27399;51.516;13.670;2023-03-04T11:15:51;12.70;;;3.60;;
41711;SDS011;27399;51.516;13.670;2023-03-04T11:18:43;7.90;;;3.75;;
41711;SDS011;27399;51.516;13.670;2023-03-04T11:21:24;10.02;;;4.18;;
41711;SDS011;27399;51.516;13.670;2023-03-04T11:23:57;14.50;;;4.43;;
41711;SDS011;27399;51.516;13.670;2023-03-04T11:26:32;11.73;;;4.25;;
41711;SDS011;27399;51.516;13.670;2023-03-04T11:31:32;9.85;;;5.47;;
41711;SDS011;27399;51.516;13.670;2023-03-04T11:37:15;11.35;;;4.15;;
41711;SDS011;27399;51.516;13.670;2023-03-04T11:39:49;14.65;;;3.50;;
41711;SDS011;27399;51.516;13.670;2023-03-04T11:45:13;7.93;;;3.58;;
41711;SDS011;27399;51.516;13.670;2023-03-04T11:50:57;13.45;;;3.30;;
41711;SDS011;27399;51.516;13.670;2023-03-04T11:56:38;11.40;;;3.58;;
41711;SDS011;27399;51.516;13.670;2023-03-04T11:59:33;14.07;;;3.47;;
41711;SDS011;27399;51.516;13.670;2023-03-04T12:01:58;8.13;;;3.28;;
41711;SDS011;27399;51.516;13.670;2023-03-04T12:39:22;3.95;;;1.60;;
41711;SDS011;27399;51.516;13.670;2023-03-04T12:44:21;6.00;;;1.90;;
41711;SDS011;27399;51.516;13.670;2023-03-04T12:52:12;6.75;;;2.38;;
41711;SDS011;27399;51.516;13.670;2023-03-04T12:54:52;7.47;;;2.60;;
41711;SDS011;27399;51.516;13.670;2023-03-04T12:57:25;7.15;;;2.30;;
41711;SDS011;27399;51.516;13.670;2023-03-04T13:02:33;5.88;;;2.03;;
41711;SDS011;27399;51.516;13.670;2023-03-04T13:11:00;4.38;;;1.92;;
41711;SDS011;27399;51.516;13.670;2023-03-04T13:13:34;5.45;;;1.73;;
41711;SDS011;27399;51.516;13.670;2023-03-04T13:16:03;4.90;;;1.90;;
41711;SDS011;27399;51.516;13.670;2023-03-04T13:18:32;8.10;;;1.80;;
41711;SDS011;27399;51.516;13.670;2023-03-04T13:23:40;6.95;;;1.30;;
41711;SDS011;27399;51.516;13.670;2023-03-04T13:26:20;3.65;;;1.33;;
41711;SDS011;27399;51.516;13.670;2023-03-04T13:28:52;10.65;;;1.85;;
41711;SDS011;27399;51.516;13.670;2023-03-04T13:34:40;5.22;;;1.98;;
41711;SDS011;27399;51.516;13.670;2023-03-04T13:42:44;7.65;;;2.70;;
41711;SDS011;27399;51.516;13.670;2023-03-04T13:47:56;6.63;;;2.60;;
41711;SDS011;27399;51.516;13.670;2023-03-04T13:50:26;12.40;;;2.20;;
41711;SDS011;27399;51.516;13.670;2023-03-04T13:52:59;5.95;;;1.90;;
41711;SDS011;27399;51.516;13.670;2023-03-04T13:55:43;14.25;;;2.47;;
41711;SDS011;27399;51.516;13.670;2023-03-04T13:58:26;7.15;;;1.83;;
41711;SDS011;27399;51.516;13.670;2023-03-04T14:00:53;15.25;;;2.92;;
41711;SDS011;27399;51.516;13.670;2023-03-04T14:03:26;8.60;;;2.85;;
41711;SDS011;27399;51.516;13.670;2023-03-04T14:08:42;10.80;;;1.83;;
41711;SDS011;27399;51.516;13.670;2023-03-04T14:11:14;11.15;;;1.88;;
41711;SDS011;27399;51.516;13.670;2023-03-04T14:13:53;20.58;;;3.08;;
41711;SDS011;27399;51.516;13.670;2023-03-04T14:16:22;6.75;;;2.30;;
41711;SDS011;27399;51.516;13.670;2023-03-04T14:19:01;5.93;;;2.17;;
41711;SDS011;27399;51.516;13.670;2023-03-04T14:21:29;8.80;;;1.98;;
41711;SDS011;27399;51.516;13.670;2023-03-04T14:24:28;12.00;;;2.13;;
41711;SDS011;27399;51.516;13.670;2023-03-04T14:26:48;15.05;;;2.03;;
41711;SDS011;27399;51.516;13.670;2023-03-04T14:29:32;10.32;;;2.58;;
41711;SDS011;27399;51.516;13.670;2023-03-04T14:31:58;10.65;;;2.20;;
41711;SDS011;27399;51.516;13.670;2023-03-04T14:34:27;18.45;;;3.35;;
41711;SDS011;27399;51.516;13.670;2023-03-04T14:37:00;9.75;;;3.00;;
41711;SDS011;27399;51.516;13.670;2023-03-04T14:39:30;11.38;;;2.58;;
41711;SDS011;27399;51.516;13.670;2023-03-04T14:42:03;12.73;;;2.67;;
41711;SDS011;27399;51.516;13.670;2023-03-04T14:44:44;11.98;;;2.15;;
41711;SDS011;27399;51.516;13.670;2023-03-04T14:49:46;11.10;;;1.80;;
41711;SDS011;27399;51.516;13.670;2023-03-04T14:58:05;12.57;;;2.28;;
41711;SDS011;27399;51.516;13.670;2023-03-04T15:00:37;19.05;;;3.13;;
41711;SDS011;27399;51.516;13.670;2023-03-04T15:03:26;16.98;;;2.00;;
41711;SDS011;27399;51.516;13.670;2023-03-04T15:05:54;10.40;;;2.40;;
41711;SDS011;27399;51.516;13.670;2023-03-04T15:20:26;8.05;;;2.58;;
41711;SDS011;27399;51.516;13.670;2023-03-04T15:25:18;12.48;;;2.88;;
41711;SDS011;27399;51.516;13.670;2023-03-04T15:27:45;8.77;;;2.08;;
41711;SDS011;27399;51.516;13.670;2023-03-04T15:30:15;14.52;;;2.42;;
41711;SDS011;27399;51.516;13.670;2023-03-04T15:32:41;25.55;;;3.10;;
41711;SDS011;27399;51.516;13.670;2023-03-04T15:35:14;12.98;;;2.75;;
41711;SDS011;27399;51.516;13.670;2023-03-04T15:37:41;19.50;;;2.40;;
41711;SDS011;27399;51.516;13.670;2023-03-04T15:40:25;10.15;;;2.20;;
41711;SDS011;27399;51.516;13.670;2023-03-04T15:42:57;9.10;;;2.50;;
41711;SDS011;27399;51.516;13.670;2023-03-04T15:45:26;15.32;;;2.55;;
41711;SDS011;27399;51.516;13.670;2023-03-04T15:48:05;15.50;;;2.38;;
41711;SDS011;27399;51.516;13.670;2023-03-04T15:53:01;11.85;;;2.50;;
41711;SDS011;27399;51.516;13.670;2023-03-04T15:55:28;18.88;;;3.20;;
41711;SDS011;27399;51.516;13.670;2023-03-04T15:57:56;13.20;;;2.42;;
41711;SDS011;27399;51.516;13.670;2023-03-04T16:00:25;14.00;;;3.42;;
41711;SDS011;27399;51.516;13.670;2023-03-04T16:02:51;11.70;;;3.13;;
41711;SDS011;27399;51.516;13.670;2023-03-04T16:05:17;8.73;;;2.47;;
41711;SDS011;27399;51.516;13.670;2023-03-04T16:07:43;16.48;;;2.75;;
41711;SDS011;27399;51.516;13.670;2023-03-04T16:10:31;12.05;;;2.60;;
41711;SDS011;27399;51.516;13.670;2023-03-04T16:12:57;11.32;;;2.20;;
41711;SDS011;27399;51.516;13.670;2023-03-04T16:15:24;12.68;;;2.70;;
41711;SDS011;27399;51.516;13.670;2023-03-04T16:17:51;12.52;;;3.20;;
41711;SDS011;27399;51.516;13.670;2023-03-04T16:20:19;14.45;;;4.70;;
41711;SDS011;27399;51.516;13.670;2023-03-04T16:22:48;8.27;;;2.50;;
41711;SDS011;27399;51.516;13.670;2023-03-04T16:25:18;8.23;;;2.40;;
41711;SDS011;27399;51.516;13.670;2023-03-04T16:27:44;13.25;;;2.47;;
41711;SDS011;27399;51.516;13.670;2023-03-04T16:30:14;12.35;;;2.20;;
41711;SDS011;27399;51.516;13.670;2023-03-04T16:32:44;6.65;;;2.20;;
41711;SDS011;27399;51.516;13.670;2023-03-04T16:35:11;12.75;;;2.60;;
41711;SDS011;27399;51.516;13.670;2023-03-04T16:37:37;11.80;;;2.15;;
41711;SDS011;27399;51.516;13.670;2023-03-04T16:40:04;11.23;;;2.15;;
41711;SDS011;27399;51.516;13.670;2023-03-04T16:42:30;18.73;;;2.78;;
41711;SDS011;27399;51.516;13.670;2023-03-04T16:44:56;9.50;;;2.85;;